createdAt,value
2023-04-10T00:00:30.842Z,77.42
2023-04-10T00:01:30.854Z,77.51
2023-04-10T00:02:31.004Z,77.51
2023-04-10T00:03:31.007Z,77.51
2023-04-10T00:04:30.926Z,77.42
2023-04-10T00:05:30.892Z,77.42
2023-04-10T00:06:30.867Z,77.51
2023-04-10T00:07:30.866Z,77.70
2023-04-10T00:08:30.865Z,77.51
2023-04-10T00:09:30.869Z,77.32
2023-04-10T00:10:30.898Z,77.61
2023-04-10T00:11:30.906Z,77.70
2023-04-10T00:12:30.882Z,77.98
2023-04-10T00:13:30.894Z,77.98
2023-04-10T00:14:30.910Z,77.89
2023-04-10T00:15:30.908Z,77.89
2023-04-10T00:16:30.916Z,77.80
2023-04-10T00:17:31.061Z,78.37
2023-04-10T00:18:30.922Z,78.17
2023-04-10T00:19:30.926Z,78.33
2023-04-10T00:20:30.938Z,78.33
2023-04-10T00:21:30.936Z,78.42
2023-04-10T00:22:30.940Z,78.33
2023-04-10T00:23:30.946Z,78.14
2023-04-10T00:24:30.946Z,78.14
2023-04-10T00:25:30.959Z,78.04
2023-04-10T00:26:30.968Z,78.33
2023-04-10T00:27:30.960Z,78.14
2023-04-10T00:28:30.974Z,78.52
2023-04-10T00:29:30.980Z,78.42
2023-04-10T00:30:31.002Z,78.42
2023-04-10T00:31:31.035Z,78.33
2023-04-10T00:32:31.014Z,78.33
2023-04-10T00:33:31.021Z,78.80
2023-04-10T00:34:30.999Z,78.61
2023-04-10T00:35:31.009Z,78.80
2023-04-10T00:36:31.008Z,78.61
2023-04-10T00:37:31.012Z,78.71
2023-04-10T00:38:31.039Z,78.99
2023-04-10T00:39:31.038Z,78.80
2023-04-10T00:40:31.029Z,78.71
2023-04-10T00:41:31.038Z,79.28
2023-04-10T00:42:31.052Z,78.99
2023-04-10T00:43:31.056Z,79.09
2023-04-10T00:44:31.044Z,78.99
2023-04-10T00:45:31.063Z,79.57
2023-04-10T00:46:31.117Z,79.19
2023-04-10T00:47:31.113Z,79.28
2023-04-10T00:48:31.066Z,79.28
2023-04-10T00:49:31.102Z,79.57
2023-04-10T00:50:31.084Z,79.19
2023-04-10T00:51:31.094Z,79.28
2023-04-10T00:52:31.094Z,79.09
2023-04-10T00:53:31.105Z,79.19
2023-04-10T00:54:31.099Z,79.19
2023-04-10T00:55:31.115Z,78.90
2023-04-10T00:56:31.108Z,78.99
2023-04-10T00:57:31.114Z,79.19
2023-04-10T00:58:31.126Z,79.66
2023-04-10T00:59:31.126Z,79.38
2023-04-10T01:00:31.132Z,79.09
2023-04-10T01:01:31.261Z,79.85
2023-04-10T01:02:31.218Z,79.66
2023-04-10T01:03:31.331Z,79.66
2023-04-10T01:04:31.233Z,79.85
2023-04-10T01:05:31.178Z,79.75
2023-04-10T01:06:31.157Z,79.66
2023-04-10T01:07:31.170Z,79.66
2023-04-10T01:08:31.192Z,79.72
2023-04-10T01:09:31.184Z,79.66
2023-04-10T01:10:31.184Z,79.47
2023-04-10T01:11:31.178Z,79.43
2023-04-10T01:12:31.193Z,79.66
2023-04-10T01:13:31.189Z,79.62
2023-04-10T01:14:31.208Z,80.00
2023-04-10T01:15:31.206Z,79.91
2023-04-10T01:16:31.236Z,79.81
2023-04-10T01:17:31.245Z,79.81
2023-04-10T01:18:31.229Z,80.10
2023-04-10T01:19:31.229Z,80.00
2023-04-10T01:20:31.229Z,80.10
2023-04-10T01:21:31.264Z,80.10
2023-04-10T01:22:31.242Z,80.10
2023-04-10T01:23:31.240Z,80.19
2023-04-10T01:24:31.251Z,80.10
2023-04-10T01:25:31.268Z,79.81
2023-04-10T01:26:31.261Z,80.19
2023-04-10T01:27:31.259Z,80.10
2023-04-10T01:28:31.267Z,80.38
2023-04-10T01:29:31.268Z,80.00
2023-04-10T01:30:31.291Z,80.47
2023-04-10T01:31:31.283Z,80.47
2023-04-10T01:32:31.345Z,80.29
2023-04-10T01:33:31.299Z,80.19
2023-04-10T01:34:31.322Z,80.00
2023-04-10T01:35:31.319Z,80.00
2023-04-10T01:36:31.313Z,80.19
2023-04-10T01:37:31.324Z,80.29
2023-04-10T01:38:31.318Z,80.47
2023-04-10T01:39:31.339Z,80.47
2023-04-10T01:40:31.327Z,79.91
2023-04-10T01:41:31.330Z,79.72
2023-04-10T01:42:31.332Z,80.10
2023-04-10T01:43:31.349Z,80.19
2023-04-10T01:44:31.340Z,80.44
2023-04-10T01:45:31.350Z,80.57
2023-04-10T01:46:31.398Z,80.82
2023-04-10T01:47:31.388Z,80.82
2023-04-10T01:48:31.367Z,81.10
2023-04-10T01:49:31.361Z,81.01
2023-04-10T01:50:31.367Z,81.29
2023-04-10T01:51:31.378Z,81.58
2023-04-10T01:52:31.380Z,81.29
2023-04-10T01:53:31.420Z,81.77
2023-04-10T01:54:31.394Z,81.86
2023-04-10T01:55:31.398Z,81.67
2023-04-10T01:56:31.412Z,82.15
2023-04-10T01:57:31.408Z,81.96
2023-04-10T01:58:31.414Z,81.67
2023-04-10T01:59:31.416Z,81.96
2023-04-10T02:00:31.417Z,81.96
2023-04-10T02:01:31.514Z,82.34
2023-04-10T02:02:31.603Z,82.15
2023-04-10T02:03:31.641Z,82.05
2023-04-10T02:04:31.527Z,82.15
2023-04-10T02:05:31.445Z,82.15
2023-04-10T02:06:31.438Z,81.96
2023-04-10T02:07:31.441Z,81.96
2023-04-10T02:08:31.456Z,82.24
2023-04-10T02:09:31.476Z,82.24
2023-04-10T02:10:31.507Z,82.34
2023-04-10T02:11:31.470Z,82.62
2023-04-10T02:13:14.009Z,82.24
2023-04-10T02:14:14.016Z,82.24
2023-04-10T02:15:14.016Z,82.24
2023-04-10T02:16:14.058Z,81.86
2023-04-10T02:17:14.022Z,81.96
2023-04-10T02:18:14.033Z,82.05
2023-04-10T02:19:14.034Z,82.05
2023-04-10T02:20:14.041Z,82.15
2023-04-10T02:21:14.040Z,82.05
2023-04-10T02:22:14.048Z,82.05
2023-04-10T02:23:14.057Z,82.15
2023-04-10T02:24:14.068Z,82.24
2023-04-10T02:25:14.082Z,81.96
2023-04-10T02:26:14.066Z,82.05
2023-04-10T02:27:14.070Z,82.34
2023-04-10T02:28:14.088Z,82.15
2023-04-10T02:29:14.075Z,82.05
2023-04-10T02:30:14.077Z,82.15
2023-04-10T02:31:14.123Z,81.77
2023-04-10T02:32:14.093Z,82.05
2023-04-10T02:33:14.089Z,82.24
2023-04-10T02:34:14.103Z,82.53
2023-04-10T02:35:14.097Z,82.05
2023-04-10T02:36:14.137Z,82.43
2023-04-10T02:37:14.103Z,82.71
2023-04-10T02:38:15.572Z,82.53
2023-04-10T02:39:14.114Z,82.34
2023-04-10T02:40:14.129Z,82.62
2023-04-10T02:41:14.151Z,82.91
2023-04-10T02:42:14.127Z,82.71
2023-04-10T02:43:14.139Z,82.24
2023-04-10T02:44:14.140Z,82.71
2023-04-10T02:45:14.172Z,82.43
2023-04-10T02:46:14.202Z,82.91
2023-04-10T02:47:14.168Z,82.24
2023-04-10T02:48:14.172Z,82.71
2023-04-10T02:49:14.164Z,82.91
2023-04-10T02:50:14.190Z,82.34
2023-04-10T02:51:14.173Z,82.24
2023-04-10T02:52:14.181Z,82.24
2023-04-10T02:53:14.173Z,82.91
2023-04-10T02:54:14.209Z,82.34
2023-04-10T02:55:14.188Z,82.71
2023-04-10T02:56:14.196Z,82.43
2023-04-10T02:57:14.217Z,82.43
2023-04-10T02:58:15.112Z,82.15
2023-04-10T02:59:14.212Z,82.91
2023-04-10T03:00:14.208Z,82.62
2023-04-10T03:01:14.203Z,82.62
2023-04-10T03:02:14.437Z,82.71
2023-04-10T03:03:14.292Z,82.71
2023-04-10T03:04:14.369Z,82.43
2023-04-10T03:05:14.222Z,82.43
2023-04-10T03:06:14.232Z,82.91
2023-04-10T03:07:14.245Z,82.62
2023-04-10T03:08:14.236Z,82.96
2023-04-10T03:09:14.253Z,83.19
2023-04-10T03:10:14.262Z,83.29
2023-04-10T03:11:14.248Z,82.91
2023-04-10T03:12:14.258Z,83.10
2023-04-10T03:13:14.294Z,83.10
2023-04-10T03:14:14.260Z,83.19
2023-04-10T03:15:14.266Z,83.19
2023-04-10T03:16:14.332Z,83.29
2023-04-10T03:17:14.280Z,83.10
2023-04-10T03:18:14.313Z,83.19
2023-04-10T03:19:14.290Z,83.00
2023-04-10T03:20:14.290Z,82.71
2023-04-10T03:21:14.290Z,82.43
2023-04-10T03:22:14.298Z,82.43
2023-04-10T03:23:14.323Z,82.53
2023-04-10T03:24:14.305Z,82.71
2023-04-10T03:25:14.308Z,82.71
2023-04-10T03:26:14.306Z,82.01
2023-04-10T03:27:14.313Z,82.71
2023-04-10T03:28:14.322Z,82.20
2023-04-10T03:29:14.348Z,82.81
2023-04-10T03:30:14.327Z,82.58
2023-04-10T03:31:14.346Z,82.58
2023-04-10T03:32:14.337Z,82.49
2023-04-10T03:33:14.388Z,82.58
2023-04-10T03:34:14.345Z,82.29
2023-04-10T03:35:14.343Z,82.39
2023-04-10T03:36:14.380Z,82.49
2023-04-10T03:37:14.358Z,82.68
2023-04-10T03:38:14.356Z,82.68
2023-04-10T03:39:14.368Z,82.68
2023-04-10T03:40:14.364Z,82.68
2023-04-10T03:41:14.373Z,82.49
2023-04-10T03:42:14.372Z,82.49
2023-04-10T03:43:14.380Z,82.20
2023-04-10T03:44:14.380Z,82.01
2023-04-10T03:45:14.416Z,82.49
2023-04-10T03:46:14.391Z,82.58
2023-04-10T03:47:14.438Z,82.49
2023-04-10T03:48:14.394Z,82.58
2023-04-10T03:49:14.397Z,82.49
2023-04-10T03:50:14.403Z,82.58
2023-04-10T03:51:14.462Z,82.68
2023-04-10T03:52:14.408Z,82.39
2023-04-10T03:53:14.420Z,82.49
2023-04-10T03:54:14.417Z,82.49
2023-04-10T03:55:14.428Z,82.20
2023-04-10T03:56:14.435Z,82.68
2023-04-10T03:57:14.438Z,82.01
2023-04-10T03:58:14.438Z,82.68
2023-04-10T03:59:14.444Z,82.58
2023-04-10T04:00:14.445Z,82.68
2023-04-10T04:01:14.479Z,82.39
2023-04-10T04:02:14.567Z,82.87
2023-04-10T04:03:14.596Z,82.96
2023-04-10T04:04:14.656Z,82.68
2023-04-10T04:05:14.465Z,82.58
2023-04-10T04:06:14.467Z,82.58
2023-04-10T04:07:14.472Z,82.49
2023-04-10T04:08:14.470Z,82.68
2023-04-10T04:09:14.475Z,82.49
2023-04-10T04:10:14.479Z,82.68
2023-04-10T04:11:14.484Z,82.77
2023-04-10T04:12:14.503Z,83.15
2023-04-10T04:13:14.496Z,82.87
2023-04-10T04:14:14.498Z,82.96
2023-04-10T04:15:14.508Z,83.15
2023-04-10T04:16:14.519Z,83.11
2023-04-10T04:17:14.549Z,82.87
2023-04-10T04:18:14.505Z,83.06
2023-04-10T04:19:14.531Z,82.82
2023-04-10T04:20:14.541Z,82.73
2023-04-10T04:21:14.528Z,82.82
2023-04-10T04:22:14.529Z,82.82
2023-04-10T04:23:14.543Z,82.82
2023-04-10T04:24:14.544Z,82.82
2023-04-10T04:25:14.538Z,83.30
2023-04-10T04:26:14.538Z,83.11
2023-04-10T04:27:14.547Z,82.92
2023-04-10T04:28:14.552Z,83.30
2023-04-10T04:29:14.560Z,83.39
2023-04-10T04:30:14.558Z,83.68
2023-04-10T04:31:14.561Z,83.49
2023-04-10T04:32:14.655Z,83.39
2023-04-10T04:33:14.593Z,83.39
2023-04-10T04:34:14.576Z,83.39
2023-04-10T04:35:14.585Z,83.97
2023-04-10T04:36:14.637Z,84.06
2023-04-10T04:37:14.586Z,84.06
2023-04-10T04:38:14.584Z,84.06
2023-04-10T04:39:14.587Z,84.06
2023-04-10T04:40:14.600Z,84.20
2023-04-10T04:41:14.593Z,84.20
2023-04-10T04:42:14.618Z,84.20
2023-04-10T04:43:14.609Z,83.91
2023-04-10T04:44:14.612Z,83.82
2023-04-10T04:45:14.611Z,84.01
2023-04-10T04:46:14.636Z,83.82
2023-04-10T04:47:14.630Z,84.01
2023-04-10T04:48:14.623Z,83.72
2023-04-10T04:49:14.668Z,83.82
2023-04-10T04:50:14.625Z,83.53
2023-04-10T04:51:14.645Z,84.20
2023-04-10T04:52:14.661Z,84.39
2023-04-10T04:53:14.637Z,84.29
2023-04-10T04:54:14.647Z,84.10
2023-04-10T04:55:14.661Z,84.20
2023-04-10T04:56:14.662Z,84.20
2023-04-10T04:57:14.657Z,84.20
2023-04-10T04:58:14.655Z,84.29
2023-04-10T04:59:14.674Z,83.82
2023-04-10T05:00:14.692Z,83.82
2023-04-10T05:02:14.750Z,83.76
2023-04-10T05:03:14.869Z,83.48
2023-04-10T05:04:14.985Z,83.67
2023-04-10T05:05:14.706Z,83.76
2023-04-10T05:06:14.691Z,83.58
2023-04-10T05:07:14.685Z,83.67
2023-04-10T05:08:14.689Z,83.67
2023-04-10T05:10:02.242Z,83.76
2023-04-10T05:11:02.249Z,84.05
2023-04-10T05:12:02.251Z,84.33
2023-04-10T05:13:02.259Z,84.05
2023-04-10T05:14:02.258Z,83.67
2023-04-10T05:15:02.267Z,83.76
2023-04-10T05:16:02.350Z,83.76
2023-04-10T05:17:03.682Z,83.95
2023-04-10T05:18:02.427Z,83.67
2023-04-10T05:19:02.277Z,83.86
2023-04-10T05:20:02.280Z,83.76
2023-04-10T05:21:02.351Z,84.05
2023-04-10T05:22:02.332Z,83.39
2023-04-10T05:23:02.293Z,83.48
2023-04-10T05:24:02.315Z,83.48
2023-04-10T05:25:02.297Z,83.62
2023-04-10T05:26:02.305Z,83.67
2023-04-10T05:27:02.382Z,84.10
2023-04-10T05:28:02.304Z,83.62
2023-04-10T05:29:02.309Z,83.72
2023-04-10T05:30:02.327Z,83.76
2023-04-10T05:31:02.348Z,83.91
2023-04-10T05:33:02.360Z,83.82
2023-04-10T05:34:02.333Z,84.24
2023-04-10T05:35:44.913Z,84.33
2023-04-10T05:36:47.524Z,83.95
2023-04-10T05:37:44.881Z,84.24
2023-04-10T05:38:44.880Z,84.33
2023-04-10T05:39:44.886Z,84.05
2023-04-10T05:40:44.897Z,84.33
2023-04-10T05:41:44.904Z,83.95
2023-04-10T05:42:44.897Z,84.33
2023-04-10T05:43:44.915Z,84.24
2023-04-10T05:44:44.902Z,84.05
2023-04-10T05:45:44.916Z,84.33
2023-04-10T05:46:44.962Z,84.14
2023-04-10T05:47:44.939Z,84.14
2023-04-10T05:48:44.920Z,84.05
2023-04-10T05:49:47.558Z,84.01
2023-04-10T05:50:44.935Z,84.01
2023-04-10T05:53:56.407Z,84.72
2023-04-10T05:55:35.106Z,84.62
2023-04-10T05:56:35.110Z,84.72
2023-04-10T05:57:35.125Z,84.81
2023-04-10T05:58:35.108Z,85.10
2023-04-10T05:59:35.119Z,85.10
2023-04-10T06:00:35.526Z,85.10
2023-04-10T06:01:35.188Z,85.10
2023-04-10T06:02:35.370Z,84.91
2023-04-10T06:03:35.289Z,84.72
2023-04-10T06:04:35.389Z,84.72
2023-04-10T06:05:35.138Z,84.72
2023-04-10T06:06:35.137Z,84.72
2023-04-10T06:07:35.147Z,84.52
2023-04-10T06:08:35.149Z,84.91
2023-04-10T06:09:35.183Z,84.72
2023-04-10T06:11:17.700Z,84.52
2023-04-10T06:12:17.697Z,84.62
2023-04-10T06:13:17.695Z,84.76
2023-04-10T06:14:17.709Z,84.76
2023-04-10T06:15:17.705Z,84.76
2023-04-10T06:17:00.249Z,84.47
2023-04-10T06:18:00.348Z,84.47
2023-04-10T06:19:00.265Z,84.76
2023-04-10T06:20:00.262Z,84.66
2023-04-10T06:21:00.290Z,84.76
2023-04-10T06:22:00.273Z,84.66
2023-04-10T06:23:00.273Z,84.66
2023-04-10T06:24:00.272Z,84.66
2023-04-10T06:25:00.309Z,84.66
2023-04-10T06:26:00.288Z,84.85
2023-04-10T06:27:00.291Z,84.28
2023-04-10T06:28:00.297Z,84.28
2023-04-10T06:29:42.836Z,84.28
2023-04-10T06:30:42.847Z,84.28
2023-04-10T06:31:42.876Z,84.09
2023-04-10T06:32:42.969Z,84.47
2023-04-10T06:33:42.859Z,84.38
2023-04-10T06:35:25.404Z,84.00
2023-04-10T06:36:25.651Z,84.28
2023-04-10T06:37:25.406Z,84.09
2023-04-10T06:38:25.415Z,84.09
2023-04-10T06:39:25.423Z,84.09
2023-04-10T06:40:25.447Z,84.00
2023-04-10T06:41:25.421Z,84.42
2023-04-10T06:42:25.424Z,84.04
2023-04-10T06:43:25.430Z,84.04
2023-04-10T06:44:25.450Z,84.04
2023-04-10T06:45:25.442Z,84.04
2023-04-10T06:46:25.480Z,84.13
2023-04-10T06:47:25.493Z,84.04
2023-04-10T06:48:25.460Z,83.75
2023-04-10T06:49:25.460Z,84.13
2023-04-10T06:50:25.459Z,84.33
2023-04-10T06:51:25.468Z,83.65
2023-04-10T06:52:25.485Z,83.32
2023-04-10T06:54:48.099Z,83.32
2023-04-10T07:36:26.684Z,79.97
2023-04-10T07:37:26.642Z,79.97
2023-04-10T07:38:26.652Z,79.49
2023-04-10T07:39:26.661Z,79.30
2023-04-10T07:40:26.656Z,79.11
2023-04-10T07:41:26.659Z,78.92
2023-04-10T07:42:26.668Z,78.44
2023-04-10T07:43:27.106Z,78.49
2023-04-10T07:44:26.702Z,78.58
2023-04-10T07:45:26.696Z,78.30
2023-04-10T07:47:09.233Z,77.72
2023-04-10T07:48:09.232Z,78.01
2023-04-10T07:49:09.242Z,77.53
2023-04-10T07:51:36.958Z,76.86
2023-04-10T07:56:32.819Z,76.23
2023-04-10T07:57:32.807Z,76.18
2023-04-10T07:58:32.814Z,76.40
2023-04-10T07:59:32.823Z,76.16
2023-04-10T08:00:32.824Z,75.56
2023-04-10T08:01:32.839Z,75.64
2023-04-10T08:02:33.009Z,75.01
2023-04-10T08:03:32.946Z,74.37
2023-04-10T08:04:32.946Z,72.49
2023-04-10T08:05:32.850Z,71.37
2023-04-10T08:06:32.866Z,69.91
2023-04-10T08:07:32.885Z,67.45
2023-04-10T08:09:35.445Z,65.69
2023-04-10T08:10:35.458Z,65.33
2023-04-10T08:11:37.966Z,64.08
2023-04-10T08:12:35.468Z,62.57
2023-04-10T08:13:35.470Z,61.80
2023-04-10T08:14:35.477Z,60.36
2023-04-10T08:15:35.495Z,59.97
2023-04-10T08:16:35.503Z,59.52
2023-04-10T08:17:35.525Z,58.95
2023-04-10T08:18:35.501Z,57.34
2023-04-10T08:19:36.366Z,56.66
2023-04-10T08:20:36.123Z,56.27
2023-04-10T08:21:35.515Z,54.76
2023-04-10T08:22:35.536Z,54.57
2023-04-10T08:23:35.530Z,54.18
2023-04-10T08:24:35.533Z,52.81
2023-04-10T08:25:35.531Z,51.94
2023-04-10T08:26:35.545Z,52.78
2023-04-10T08:27:35.551Z,53.55
2023-04-10T08:28:35.563Z,53.94
2023-04-10T08:29:35.565Z,53.55
2023-04-10T08:30:35.605Z,52.59
2023-04-10T08:31:35.575Z,52.11
2023-04-10T08:32:35.612Z,52.40
2023-04-10T08:33:35.792Z,52.78
2023-04-10T16:52:58.417Z,52.55
2023-04-10T16:56:24.266Z,52.93
2023-04-10T16:57:24.269Z,53.03
2023-04-10T16:58:24.273Z,53.03
2023-04-10T16:59:24.307Z,53.22
2023-04-10T17:00:24.292Z,53.22
2023-04-10T17:01:24.392Z,53.31
2023-04-10T17:02:24.436Z,53.31
2023-04-10T17:03:24.354Z,53.79
2023-04-10T17:04:24.369Z,53.89
2023-04-10T17:05:24.341Z,53.70
2023-04-10T17:06:24.375Z,54.17
2023-04-10T17:07:24.366Z,54.37
2023-04-10T17:08:24.397Z,53.99
2023-04-10T17:09:24.379Z,54.37
2023-04-10T17:18:29.599Z,55.30
2023-04-10T17:27:40.940Z,55.21
2023-04-10T17:28:40.471Z,55.21
2023-04-10T17:29:40.480Z,55.11
2023-04-10T17:30:40.507Z,55.11
2023-04-10T17:31:40.515Z,54.99
2023-04-10T17:32:40.543Z,55.11
2023-04-10T17:33:40.515Z,55.11
2023-04-10T17:34:40.530Z,55.11
2023-04-10T17:35:40.566Z,55.11
2023-04-10T17:36:40.540Z,55.21
2023-04-10T17:37:40.559Z,55.30
2023-04-10T17:38:40.566Z,55.30
2023-04-10T17:39:40.570Z,55.08
2023-04-10T17:40:40.576Z,55.21
2023-04-10T17:41:40.590Z,55.21
2023-04-10T17:42:40.592Z,55.30
2023-04-10T17:43:40.644Z,55.11
2023-04-10T17:44:40.614Z,55.27
2023-04-10T17:45:40.628Z,55.08
2023-04-10T17:57:53.080Z,55.36
2023-04-10T17:58:53.287Z,55.08
2023-04-10T17:59:53.084Z,55.36
2023-04-10T19:42:40.263Z,57.46
2023-04-10T20:48:02.165Z,60.52
2023-04-10T20:49:02.047Z,60.23
2023-04-10T20:50:02.048Z,60.13
2023-04-10T20:51:02.061Z,59.94
2023-04-10T20:52:02.070Z,60.42
2023-04-10T20:53:02.069Z,60.71
2023-04-10T20:54:02.080Z,60.20
2023-04-10T20:55:02.083Z,60.39
2023-04-10T20:56:03.478Z,60.87
2023-04-10T20:57:02.137Z,60.87
2023-04-10T20:58:02.100Z,61.06
2023-04-10T20:59:02.119Z,60.68
2023-04-10T21:00:02.121Z,61.06
2023-04-10T21:03:28.289Z,60.68
2023-04-10T21:06:53.868Z,60.87
2023-04-10T21:07:53.850Z,60.77
2023-04-10T21:08:54.025Z,61.06
2023-04-10T21:09:53.870Z,60.77
2023-04-10T21:10:53.872Z,60.77
2023-04-10T21:11:53.881Z,61.06
2023-04-10T21:12:53.878Z,60.77
2023-04-10T21:13:53.899Z,60.96
2023-04-10T21:14:53.891Z,60.77
2023-04-10T21:15:53.921Z,60.77
2023-04-10T21:16:54.016Z,60.87
2023-04-10T21:17:53.970Z,60.77
2023-04-10T21:18:54.180Z,60.87
2023-04-10T21:19:53.925Z,60.68
2023-04-10T21:20:53.931Z,60.68
2023-04-10T21:21:53.938Z,60.68
2023-04-10T21:22:53.944Z,61.06
2023-04-10T21:23:53.951Z,61.25
2023-04-10T21:24:53.966Z,61.35
2023-04-10T21:25:53.974Z,61.06
2023-04-10T21:26:53.980Z,61.35
2023-04-10T21:27:53.978Z,61.35
2023-04-10T21:28:54.269Z,60.96
2023-04-10T21:29:53.998Z,61.06
2023-04-10T21:30:54.008Z,61.54
2023-04-10T21:31:54.050Z,61.35
2023-04-10T21:32:54.040Z,61.35
2023-04-10T21:33:54.023Z,61.06
2023-04-10T21:34:54.051Z,61.44
2023-04-10T21:35:54.058Z,61.35
2023-04-10T21:36:54.037Z,61.72
2023-04-10T21:37:54.041Z,61.72
2023-04-10T21:38:54.327Z,61.82
2023-04-10T21:39:54.060Z,61.82
2023-04-10T21:40:54.067Z,61.54
2023-04-10T21:41:54.073Z,61.54
2023-04-10T21:42:56.446Z,61.35
2023-04-10T21:43:54.242Z,61.82
2023-04-10T21:44:54.086Z,61.82
2023-04-10T21:45:54.153Z,61.72
2023-04-10T21:46:54.105Z,61.82
2023-04-10T21:47:54.138Z,61.82
2023-04-10T21:48:54.415Z,61.92
2023-04-10T21:49:54.117Z,62.40
2023-04-10T21:50:54.146Z,62.11
2023-04-10T21:51:54.129Z,62.08
2023-04-10T21:52:54.176Z,62.27
2023-04-10T21:53:54.145Z,62.18
2023-04-10T21:54:54.155Z,62.08
2023-04-10T21:55:54.159Z,61.98
2023-04-10T21:56:54.169Z,62.55
2023-04-10T21:57:54.175Z,62.37
2023-04-10T21:58:54.386Z,62.55
2023-04-10T21:59:54.182Z,61.89
2023-04-10T22:00:54.230Z,62.18
2023-04-10T22:01:54.268Z,62.08
2023-04-10T22:02:54.404Z,62.37
2023-04-10T22:03:54.388Z,62.37
2023-04-10T22:04:55.028Z,62.55
2023-04-10T22:05:54.230Z,62.37
2023-04-10T22:06:54.257Z,62.27
2023-04-10T22:07:54.231Z,62.46
2023-04-10T22:08:54.366Z,62.55
2023-04-10T22:09:54.243Z,63.13
2023-04-10T22:10:54.264Z,62.55
2023-04-10T22:11:54.257Z,62.75
2023-04-10T22:12:54.279Z,63.03
2023-04-10T22:13:54.883Z,62.94
2023-04-10T22:14:54.290Z,62.94
2023-04-10T22:15:54.285Z,62.84
2023-04-10T22:16:54.325Z,63.03
2023-04-10T22:17:54.310Z,63.13
2023-04-10T22:24:11.094Z,62.94
2023-04-10T22:25:11.076Z,63.03
2023-04-10T22:26:11.078Z,63.13
2023-04-10T22:27:11.164Z,62.94
2023-04-10T22:28:11.092Z,63.32
2023-04-10T22:29:11.092Z,63.23
2023-04-10T22:30:11.096Z,63.13
2023-04-10T22:31:11.133Z,63.13
2023-04-10T22:32:11.112Z,63.23
2023-04-10T22:33:11.111Z,63.03
2023-04-10T22:34:11.117Z,62.94
2023-04-10T22:35:11.132Z,63.03
2023-04-10T22:36:11.147Z,63.03
2023-04-10T22:37:11.142Z,62.94
2023-04-10T22:38:11.164Z,62.75
2023-04-10T22:39:11.148Z,63.42
2023-04-10T22:40:11.179Z,63.13
2023-04-10T22:41:11.166Z,63.51
2023-04-10T22:42:11.174Z,63.51
2023-04-10T22:43:11.188Z,63.32
2023-04-10T22:44:11.178Z,63.32
2023-04-10T22:45:11.194Z,63.60
2023-04-10T22:46:11.241Z,63.60
2023-04-10T22:47:11.197Z,63.32
2023-04-10T22:48:11.278Z,63.23
2023-04-10T22:49:11.216Z,63.23
2023-04-10T22:50:11.213Z,63.42
2023-04-10T22:51:11.242Z,63.03
2023-04-10T22:52:11.229Z,63.23
2023-04-10T22:53:11.240Z,63.03
2023-04-10T22:54:11.240Z,63.13
2023-04-10T22:55:11.245Z,63.13
2023-04-10T22:56:11.279Z,63.03
2023-04-10T22:57:11.265Z,63.03
2023-04-10T22:58:11.265Z,63.03
2023-04-10T22:59:11.280Z,63.23
2023-04-10T23:00:11.280Z,63.13
2023-04-10T23:01:11.309Z,63.03
2023-04-10T23:02:11.420Z,62.94
2023-04-10T23:03:11.465Z,63.03
2023-04-10T23:04:11.326Z,63.03
2023-04-10T23:05:11.331Z,62.94
2023-04-10T23:06:11.331Z,62.84
2023-04-10T23:07:11.324Z,63.03
2023-04-10T23:08:11.327Z,62.94
2023-04-10T23:09:11.345Z,63.23
2023-04-10T23:10:11.646Z,63.13
2023-04-10T23:27:23.693Z,63.70
2023-04-10T23:28:23.665Z,63.80
2023-04-10T23:29:23.687Z,63.60
